LVKND SAZS-SAZS
Flight info
| Callsign | LVKND |
|---|---|
| Flight time | N/A |
| Altitude | 25000 |
| Route | LIMA2G LIMAY UW26 EGUNO DCT DAMBA DCT ARTOK ARTO1Q |
| Aircraft | P46T/L-SDFGIRY/S |
Departure
| Time | 2026-05-08 15:49 |
|---|---|
| Airport | Teniente Luis Candelaria International Airport (SAZS) |
Arrival
| Time | N/A |
|---|---|
| Airport | Teniente Luis Candelaria International Airport (SAZS) |
| Time | Latitude | Longitude | Altitude | Speed | Heading |
|---|---|---|---|---|---|
| 2026-05-08 15:40 | -41.14707 | -71.16267 | 2744 ft | 0 kts | 24° |
| 2026-05-08 15:45 | -41.14706 | -71.16266 | 2744 ft | 2 kts | 40° |
| 2026-05-08 15:46 | -41.14765 | -71.16266 | 2744 ft | 16 kts | 200° |
| 2026-05-08 15:46 | -41.14868 | -71.16328 | 2748 ft | 16 kts | 212° |
| 2026-05-08 15:46 | -41.14867 | -71.16463 | 2747 ft | 18 kts | 293° |
| 2026-05-08 15:46 | -41.14810 | -71.16633 | 2745 ft | 22 kts | 304° |
| 2026-05-08 15:47 | -41.14745 | -71.16821 | 2745 ft | 24 kts | 295° |
| 2026-05-08 15:47 | -41.14644 | -71.16978 | 2746 ft | 18 kts | 303° |
| 2026-05-08 15:47 | -41.14674 | -71.17028 | 2746 ft | 1 kts | 109° |
| 2026-05-08 15:48 | -41.14816 | -71.16618 | 2745 ft | 80 kts | 115° |
| 2026-05-08 15:48 | -41.15122 | -71.15737 | 2819 ft | 126 kts | 116° |
| 2026-05-08 15:48 | -41.15530 | -71.14548 | 3066 ft | 156 kts | 117° |
| 2026-05-08 15:49 | -41.16017 | -71.13244 | 3687 ft | 152 kts | 123° |
| 2026-05-08 15:49 | -41.16468 | -71.11971 | 4187 ft | 156 kts | 122° |
| 2026-05-08 15:49 | -41.16917 | -71.10649 | 4793 ft | 155 kts | 122° |
| 2026-05-08 15:49 | -41.17375 | -71.09342 | 5344 ft | 157 kts | 124° |
| 2026-05-08 15:50 | -41.17836 | -71.08041 | 5889 ft | 158 kts | 122° |
| 2026-05-08 15:50 | -41.18045 | -71.06573 | 6491 ft | 167 kts | 100° |
| 2026-05-08 15:50 | -41.17806 | -71.04999 | 6950 ft | 181 kts | 77° |
| 2026-05-08 15:50 | -41.17065 | -71.03605 | 7524 ft | 191 kts | 51° |
| 2026-05-08 15:51 | -41.15905 | -71.02727 | 8049 ft | 199 kts | 26° |
| 2026-05-08 15:51 | -41.14595 | -71.02101 | 8577 ft | 200 kts | 28° |
| 2026-05-08 15:51 | -41.13331 | -71.01514 | 9418 ft | 183 kts | 27° |
| 2026-05-08 15:51 | -41.12137 | -71.00963 | 10024 ft | 181 kts | 30° |
| 2026-05-08 15:52 | -41.10962 | -71.00389 | 10496 ft | 181 kts | 30° |
| 2026-05-08 15:52 | -41.09769 | -70.99808 | 10992 ft | 182 kts | 30° |
| 2026-05-08 15:52 | -41.08575 | -70.99228 | 11510 ft | 183 kts | 29° |
| 2026-05-08 15:52 | -41.07391 | -70.98655 | 12007 ft | 184 kts | 29° |
| 2026-05-08 15:53 | -41.06180 | -70.98071 | 12531 ft | 184 kts | 29° |
| 2026-05-08 15:53 | -41.04973 | -70.97488 | 13050 ft | 185 kts | 29° |
| 2026-05-08 15:53 | -41.03760 | -70.96899 | 13598 ft | 185 kts | 31° |
| 2026-05-08 15:53 | -41.02721 | -70.96042 | 14099 ft | 174 kts | 53° |
| 2026-05-08 15:54 | -41.01828 | -70.94927 | 14480 ft | 180 kts | 54° |
| 2026-05-08 15:54 | -41.00880 | -70.93784 | 14900 ft | 187 kts | 54° |
| 2026-05-08 15:54 | -40.99899 | -70.92594 | 15289 ft | 194 kts | 55° |
| 2026-05-08 15:54 | -40.98891 | -70.91364 | 15716 ft | 200 kts | 55° |
| 2026-05-08 15:55 | -40.97864 | -70.90114 | 16170 ft | 207 kts | 56° |
| 2026-05-08 15:55 | -40.95671 | -70.87445 | 17032 ft | 220 kts | 56° |
| 2026-05-08 15:55 | -40.94524 | -70.86050 | 17493 ft | 227 kts | 57° |
| 2026-05-08 15:56 | -40.93341 | -70.84614 | 17975 ft | 233 kts | 57° |
| 2026-05-08 15:56 | -40.92143 | -70.83160 | 18436 ft | 240 kts | 57° |
| 2026-05-08 15:56 | -40.90896 | -70.81649 | 18863 ft | 244 kts | 57° |
| 2026-05-08 15:56 | -40.89628 | -70.80114 | 19295 ft | 248 kts | 57° |
| 2026-05-08 15:57 | -40.88344 | -70.78558 | 19727 ft | 252 kts | 57° |
| 2026-05-08 15:57 | -40.87059 | -70.77000 | 20131 ft | 255 kts | 57° |
| 2026-05-08 15:57 | -40.85738 | -70.75399 | 20591 ft | 259 kts | 57° |
| 2026-05-08 15:57 | -40.84391 | -70.73772 | 20987 ft | 263 kts | 57° |
| 2026-05-08 15:58 | -40.83032 | -70.72128 | 21408 ft | 266 kts | 58° |
| 2026-05-08 15:58 | -40.81668 | -70.70479 | 21842 ft | 270 kts | 57° |
| 2026-05-08 15:58 | -40.80272 | -70.68790 | 22254 ft | 274 kts | 57° |
| 2026-05-08 15:58 | -40.78854 | -70.67078 | 22689 ft | 278 kts | 58° |
| 2026-05-08 15:59 | -40.77412 | -70.65340 | 23134 ft | 282 kts | 58° |
| 2026-05-08 15:59 | -40.75949 | -70.63577 | 23563 ft | 287 kts | 58° |
| 2026-05-08 15:59 | -40.74494 | -70.61802 | 23953 ft | 286 kts | 62° |
| 2026-05-08 15:59 | -40.73146 | -70.59877 | 24326 ft | 284 kts | 66° |
| 2026-05-08 16:00 | -40.71805 | -70.57940 | 24712 ft | 287 kts | 65° |
| 2026-05-08 16:00 | -40.70456 | -70.56018 | 25105 ft | 290 kts | 65° |
| 2026-05-08 16:00 | -40.69053 | -70.53986 | 25145 ft | 310 kts | 64° |
| 2026-05-08 16:00 | -40.67543 | -70.51814 | 25160 ft | 330 kts | 62° |
| 2026-05-08 16:01 | -40.65944 | -70.49540 | 25153 ft | 345 kts | 62° |
| 2026-05-08 16:01 | -40.64280 | -70.47158 | 25151 ft | 358 kts | 61° |
| 2026-05-08 16:01 | -40.62581 | -70.44747 | 25150 ft | 367 kts | 60° |
| 2026-05-08 16:01 | -40.60824 | -70.42258 | 25143 ft | 375 kts | 60° |
| 2026-05-08 16:02 | -40.59038 | -70.39721 | 25140 ft | 379 kts | 59° |
| 2026-05-08 16:02 | -40.57232 | -70.37159 | 25143 ft | 382 kts | 59° |
| 2026-05-08 16:02 | -40.55409 | -70.34579 | 25141 ft | 385 kts | 59° |
| 2026-05-08 16:02 | -40.53578 | -70.31987 | 25140 ft | 387 kts | 59° |
| 2026-05-08 16:03 | -40.51759 | -70.29411 | 25139 ft | 388 kts | 59° |
| 2026-05-08 16:03 | -40.49916 | -70.26802 | 25138 ft | 390 kts | 59° |
| 2026-05-08 16:03 | -40.48054 | -70.24175 | 25134 ft | 391 kts | 58° |
| 2026-05-08 16:03 | -40.46217 | -70.21580 | 25126 ft | 393 kts | 58° |
| 2026-05-08 16:04 | -40.44354 | -70.18954 | 25129 ft | 392 kts | 58° |
| 2026-05-08 16:04 | -40.42489 | -70.16327 | 25129 ft | 393 kts | 58° |
| 2026-05-08 16:04 | -40.40624 | -70.13702 | 25126 ft | 393 kts | 58° |
| 2026-05-08 16:04 | -40.38760 | -70.11078 | 25124 ft | 394 kts | 58° |
| 2026-05-08 16:05 | -40.36887 | -70.08445 | 25120 ft | 394 kts | 58° |
| 2026-05-08 16:05 | -40.35015 | -70.05817 | 25115 ft | 394 kts | 58° |
| 2026-05-08 16:05 | -40.33138 | -70.03185 | 25114 ft | 394 kts | 58° |
| 2026-05-08 16:05 | -40.31271 | -70.00566 | 25108 ft | 394 kts | 57° |
| 2026-05-08 16:06 | -40.29394 | -69.97937 | 25111 ft | 394 kts | 57° |
| 2026-05-08 16:06 | -40.27537 | -69.95341 | 25107 ft | 394 kts | 57° |
| 2026-05-08 16:06 | -40.25656 | -69.92711 | 25110 ft | 394 kts | 57° |
| 2026-05-08 16:06 | -40.23780 | -69.90089 | 25095 ft | 394 kts | 57° |
| 2026-05-08 16:07 | -40.21925 | -69.87500 | 25095 ft | 394 kts | 57° |
| 2026-05-08 16:07 | -40.20046 | -69.84882 | 25091 ft | 394 kts | 57° |
| 2026-05-08 16:07 | -40.18164 | -69.82259 | 25092 ft | 394 kts | 57° |
| 2026-05-08 16:07 | -40.16282 | -69.79637 | 25085 ft | 394 kts | 57° |
| 2026-05-08 16:08 | -40.14404 | -69.77027 | 25083 ft | 394 kts | 56° |
| 2026-05-08 16:08 | -40.12525 | -69.74416 | 25082 ft | 394 kts | 56° |
| 2026-05-08 16:08 | -40.10663 | -69.71828 | 25082 ft | 394 kts | 56° |
| 2026-05-08 16:08 | -40.08783 | -69.69222 | 25076 ft | 394 kts | 56° |
| 2026-05-08 16:09 | -40.06890 | -69.66602 | 25077 ft | 394 kts | 56° |
| 2026-05-08 16:09 | -40.05645 | -69.64878 | 25073 ft | 394 kts | 56° |
| 2026-05-08 16:09 | -40.03129 | -69.61393 | 25077 ft | 394 kts | 56° |
| 2026-05-08 16:09 | -40.01246 | -69.58790 | 25069 ft | 394 kts | 56° |
| 2026-05-08 16:10 | -39.99382 | -69.56217 | 25071 ft | 394 kts | 56° |
| 2026-05-08 16:10 | -39.97502 | -69.53621 | 25072 ft | 394 kts | 56° |
| 2026-05-08 16:10 | -39.95612 | -69.51014 | 25062 ft | 394 kts | 56° |
| 2026-05-08 16:10 | -39.93713 | -69.48391 | 24843 ft | 401 kts | 55° |
| 2026-05-08 16:11 | -39.91778 | -69.45714 | 24501 ft | 410 kts | 55° |
| 2026-05-08 16:11 | -39.89802 | -69.42992 | 24122 ft | 417 kts | 54° |
| 2026-05-08 16:11 | -39.87792 | -69.40237 | 23720 ft | 421 kts | 54° |
| 2026-05-08 16:11 | -39.85775 | -69.37476 | 23270 ft | 419 kts | 54° |
| 2026-05-08 16:12 | -39.83798 | -69.34767 | 22856 ft | 416 kts | 53° |
| 2026-05-08 16:12 | -39.81805 | -69.32031 | 22455 ft | 414 kts | 53° |
| 2026-05-08 16:12 | -39.79823 | -69.29314 | 22061 ft | 411 kts | 53° |
| 2026-05-08 16:12 | -39.77848 | -69.26613 | 21661 ft | 409 kts | 53° |
| 2026-05-08 16:13 | -39.75905 | -69.23961 | 21275 ft | 402 kts | 53° |
| 2026-05-08 16:13 | -39.74005 | -69.21372 | 20893 ft | 396 kts | 53° |
| 2026-05-08 16:13 | -39.72114 | -69.18792 | 20521 ft | 391 kts | 52° |
| 2026-05-08 16:13 | -39.70242 | -69.16237 | 20140 ft | 386 kts | 52° |
| 2026-05-08 16:14 | -39.68397 | -69.13722 | 19774 ft | 382 kts | 52° |
| 2026-05-08 16:14 | -39.66586 | -69.11260 | 19415 ft | 377 kts | 52° |
| 2026-05-08 16:14 | -39.64777 | -69.08800 | 19057 ft | 373 kts | 52° |
| 2026-05-08 16:14 | -39.63002 | -69.06387 | 18701 ft | 369 kts | 52° |
| 2026-05-08 16:15 | -39.61255 | -69.04015 | 18353 ft | 365 kts | 52° |
| 2026-05-08 16:15 | -39.59505 | -69.01641 | 17964 ft | 361 kts | 52° |
| 2026-05-08 16:15 | -39.57775 | -68.99299 | 17598 ft | 357 kts | 52° |
| 2026-05-08 16:15 | -39.56063 | -68.96982 | 17238 ft | 354 kts | 51° |
| 2026-05-08 16:16 | -39.54384 | -68.94708 | 16898 ft | 352 kts | 51° |
| 2026-05-08 16:16 | -39.52697 | -68.92425 | 16554 ft | 350 kts | 51° |
| 2026-05-08 16:16 | -39.51007 | -68.90139 | 16211 ft | 348 kts | 51° |
| 2026-05-08 16:16 | -39.49347 | -68.87899 | 15889 ft | 346 kts | 51° |
| 2026-05-08 16:17 | -39.47680 | -68.85650 | 15568 ft | 345 kts | 51° |
| 2026-05-08 16:17 | -39.46574 | -68.84157 | 15358 ft | 344 kts | 51° |
| 2026-05-08 16:17 | -39.44383 | -68.81206 | 15047 ft | 338 kts | 51° |
| 2026-05-08 16:17 | -39.42766 | -68.79046 | 15043 ft | 330 kts | 51° |
| 2026-05-08 16:18 | -39.41184 | -68.76926 | 15021 ft | 325 kts | 51° |
| 2026-05-08 16:18 | -39.39595 | -68.74768 | 14602 ft | 335 kts | 51° |
| 2026-05-08 16:18 | -39.37999 | -68.72600 | 14188 ft | 339 kts | 51° |
| 2026-05-08 16:18 | -39.36345 | -68.70385 | 13773 ft | 341 kts | 50° |
| 2026-05-08 16:19 | -39.34686 | -68.68173 | 13305 ft | 341 kts | 50° |
| 2026-05-08 16:19 | -39.33056 | -68.65992 | 12852 ft | 341 kts | 50° |
| 2026-05-08 16:19 | -39.31413 | -68.63789 | 12396 ft | 337 kts | 50° |
| 2026-05-08 16:19 | -39.29916 | -68.61481 | 12044 ft | 327 kts | 63° |
| 2026-05-08 16:20 | -39.28900 | -68.58973 | 12018 ft | 310 kts | 73° |
| 2026-05-08 16:20 | -39.28012 | -68.56432 | 11846 ft | 308 kts | 72° |
| 2026-05-08 16:20 | -39.27136 | -68.53937 | 11611 ft | 307 kts | 73° |
| 2026-05-08 16:20 | -39.26261 | -68.51411 | 11357 ft | 308 kts | 73° |
| 2026-05-08 16:21 | -39.25380 | -68.48871 | 11088 ft | 308 kts | 72° |
| 2026-05-08 16:21 | -39.24509 | -68.46383 | 10821 ft | 307 kts | 72° |
| 2026-05-08 16:21 | -39.23629 | -68.43869 | 10557 ft | 307 kts | 72° |
| 2026-05-08 16:21 | -39.22747 | -68.41347 | 10279 ft | 307 kts | 72° |
| 2026-05-08 16:22 | -39.21906 | -68.38946 | 10026 ft | 307 kts | 72° |
| 2026-05-08 16:22 | -39.21322 | -68.37279 | 9838 ft | 306 kts | 72° |
| 2026-05-08 16:22 | -39.20147 | -68.33931 | 9456 ft | 304 kts | 72° |
| 2026-05-08 16:22 | -39.19276 | -68.31452 | 9188 ft | 302 kts | 72° |
| 2026-05-08 16:23 | -39.18412 | -68.28994 | 8927 ft | 300 kts | 72° |
| 2026-05-08 16:23 | -39.17562 | -68.26577 | 8665 ft | 298 kts | 72° |
| 2026-05-08 16:23 | -39.16710 | -68.24156 | 8400 ft | 296 kts | 72° |
| 2026-05-08 16:23 | -39.15859 | -68.21741 | 8142 ft | 294 kts | 72° |
| 2026-05-08 16:24 | -39.15024 | -68.19370 | 7890 ft | 293 kts | 72° |
| 2026-05-08 16:24 | -39.14179 | -68.16977 | 7635 ft | 292 kts | 72° |
| 2026-05-08 16:24 | -39.13339 | -68.14595 | 7374 ft | 290 kts | 73° |
| 2026-05-08 16:24 | -39.12504 | -68.12235 | 7116 ft | 287 kts | 72° |
| 2026-05-08 16:25 | -39.11688 | -68.09932 | 6872 ft | 284 kts | 72° |
| 2026-05-08 16:25 | -39.10867 | -68.07611 | 6625 ft | 283 kts | 72° |
| 2026-05-08 16:25 | -39.10050 | -68.05303 | 6371 ft | 282 kts | 72° |
| 2026-05-08 16:25 | -39.09239 | -68.03015 | 6112 ft | 280 kts | 72° |
| 2026-05-08 16:26 | -39.08430 | -68.00735 | 5862 ft | 279 kts | 72° |
| 2026-05-08 16:26 | -39.07624 | -67.98471 | 5613 ft | 277 kts | 72° |
| 2026-05-08 16:26 | -39.06857 | -67.96382 | 5379 ft | 242 kts | 68° |
| 2026-05-08 16:26 | -39.06210 | -67.95181 | 5223 ft | 232 kts | 54° |
| 2026-05-08 16:28 | -39.05619 | -67.94382 | 5115 ft | 233 kts | 46° |
| 2026-05-08 16:29 | -39.04320 | -67.93185 | 4882 ft | 234 kts | 29° |
| 2026-05-08 16:29 | -39.02793 | -67.92432 | 4574 ft | 234 kts | 11° |
| 2026-05-08 16:29 | -39.01223 | -67.92202 | 4327 ft | 222 kts | 355° |
| 2026-05-08 16:29 | -38.99729 | -67.92214 | 4121 ft | 209 kts | 355° |
| 2026-05-08 16:30 | -38.98302 | -67.92294 | 3915 ft | 200 kts | 343° |
| 2026-05-08 16:30 | -38.97038 | -67.92899 | 3734 ft | 187 kts | 321° |
| 2026-05-08 16:30 | -38.96054 | -67.93899 | 3563 ft | 175 kts | 303° |
| 2026-05-08 16:30 | -38.95376 | -67.95135 | 3400 ft | 166 kts | 288° |
| 2026-05-08 16:31 | -38.95004 | -67.96489 | 3244 ft | 156 kts | 272° |
| 2026-05-08 16:31 | -38.94926 | -67.97849 | 3100 ft | 150 kts | 262° |
| 2026-05-08 16:31 | -38.94920 | -67.99192 | 2964 ft | 152 kts | 264° |
| 2026-05-08 16:31 | -38.94925 | -68.00541 | 2832 ft | 153 kts | 263° |
| 2026-05-08 16:32 | -38.94926 | -68.01894 | 2681 ft | 150 kts | 264° |
| 2026-05-08 16:32 | -38.94920 | -68.03224 | 2531 ft | 147 kts | 264° |
| 2026-05-08 16:32 | -38.94911 | -68.04433 | 2352 ft | 123 kts | 263° |
| 2026-05-08 16:32 | -38.94912 | -68.05456 | 2188 ft | 107 kts | 262° |
| 2026-05-08 16:33 | -38.94910 | -68.06358 | 2044 ft | 99 kts | 262° |
| 2026-05-08 16:33 | -38.94911 | -68.07221 | 1917 ft | 95 kts | 261° |
| 2026-05-08 16:33 | -38.94908 | -68.08002 | 1820 ft | 85 kts | 258° |
| 2026-05-08 16:33 | -38.94914 | -68.08777 | 1706 ft | 87 kts | 261° |
| 2026-05-08 16:34 | -38.94909 | -68.09545 | 1596 ft | 87 kts | 263° |
| 2026-05-08 16:34 | -38.94892 | -68.10312 | 1491 ft | 86 kts | 259° |
| 2026-05-08 16:34 | -38.94904 | -68.11100 | 1403 ft | 91 kts | 257° |
| 2026-05-08 16:34 | -38.94896 | -68.11925 | 1316 ft | 94 kts | 260° |
| 2026-05-08 16:35 | -38.94895 | -68.12763 | 1172 ft | 92 kts | 263° |
| 2026-05-08 16:35 | -38.94896 | -68.13574 | 1037 ft | 92 kts | 263° |
| 2026-05-08 16:35 | -38.94900 | -68.14382 | 908 ft | 87 kts | 262° |
| 2026-05-08 16:35 | -38.94890 | -68.15023 | 906 ft | 67 kts | 268° |
| 2026-05-08 16:36 | -38.94881 | -68.15682 | 1047 ft | 79 kts | 258° |
| 2026-05-08 16:36 | -38.94856 | -68.16426 | 1231 ft | 88 kts | 264° |
| 2026-05-08 16:36 | -38.94832 | -68.17374 | 1402 ft | 125 kts | 266° |
| 2026-05-08 16:36 | -38.94774 | -68.18561 | 1794 ft | 140 kts | 268° |
| 2026-05-08 16:37 | -38.94791 | -68.19802 | 2195 ft | 139 kts | 249° |
| 2026-05-08 16:37 | -38.95456 | -68.20757 | 2334 ft | 156 kts | 207° |
| 2026-05-08 16:37 | -38.96566 | -68.20777 | 2595 ft | 173 kts | 171° |
| 2026-05-08 16:37 | -38.97661 | -68.20006 | 2914 ft | 189 kts | 147° |
| 2026-05-08 16:38 | -38.98388 | -68.18460 | 3019 ft | 214 kts | 117° |
| 2026-05-08 16:38 | -38.98633 | -68.16513 | 2935 ft | 235 kts | 94° |
| 2026-05-08 16:38 | -38.98501 | -68.14402 | 2818 ft | 235 kts | 93° |
| 2026-05-08 16:38 | -38.98555 | -68.12330 | 2696 ft | 229 kts | 102° |
| 2026-05-08 16:39 | -38.98698 | -68.10317 | 2521 ft | 221 kts | 102° |
| 2026-05-08 16:39 | -38.98829 | -68.08355 | 2335 ft | 218 kts | 101° |
| 2026-05-08 16:39 | -38.98833 | -68.06460 | 2124 ft | 211 kts | 83° |
| 2026-05-08 16:39 | -38.98124 | -68.04911 | 1989 ft | 193 kts | 38° |
| 2026-05-08 16:40 | -38.97004 | -68.04340 | 2002 ft | 159 kts | 1° |
| 2026-05-08 16:40 | -38.95966 | -68.04354 | 1992 ft | 140 kts | 327° |
| 2026-05-08 16:40 | -38.95383 | -68.05155 | 1966 ft | 119 kts | 287° |
| 2026-05-08 16:40 | -38.95035 | -68.06115 | 1986 ft | 117 kts | 282° |
| 2026-05-08 16:41 | -38.94856 | -68.07087 | 1920 ft | 110 kts | 261° |
| 2026-05-08 16:41 | -38.94890 | -68.08083 | 1829 ft | 114 kts | 259° |
| 2026-05-08 16:41 | -38.94886 | -68.09086 | 1688 ft | 106 kts | 264° |
| 2026-05-08 16:42 | -38.94891 | -68.10697 | 1456 ft | 83 kts | 262° |
| 2026-05-08 16:42 | -38.94897 | -68.11437 | 1358 ft | 84 kts | 254° |
| 2026-05-08 16:42 | -38.94901 | -68.12219 | 1253 ft | 86 kts | 261° |
| 2026-05-08 16:42 | -38.94897 | -68.12972 | 1146 ft | 80 kts | 254° |
| 2026-05-08 16:43 | -38.94901 | -68.13692 | 1015 ft | 80 kts | 256° |
| 2026-05-08 16:43 | -38.94900 | -68.14404 | 908 ft | 76 kts | 262° |
| 2026-05-08 16:43 | -38.94907 | -68.14926 | 897 ft | 40 kts | 279° |
| 2026-05-08 16:43 | -38.94903 | -68.15006 | 897 ft | 7 kts | 268° |
| 2026-05-08 16:44 | -38.94952 | -68.15071 | 897 ft | 20 kts | 130° |
| 2026-05-08 16:44 | -38.95086 | -68.14884 | 898 ft | 35 kts | 109° |
| 2026-05-08 16:44 | -38.95091 | -68.14567 | 898 ft | 36 kts | 91° |
| 2026-05-08 16:44 | -38.95093 | -68.14248 | 899 ft | 32 kts | 85° |
| 2026-05-08 16:45 | -38.95096 | -68.14004 | 898 ft | 21 kts | 93° |
| 2026-05-08 16:45 | -38.95147 | -68.13915 | 898 ft | 9 kts | 180° |
| 2026-05-08 16:45 | -38.95157 | -68.13915 | 898 ft | 2 kts | 180° |
| 2026-05-08 16:45 | -38.95167 | -68.13939 | 898 ft | 0 kts | 269° |